Time;durP1;ratioP1;P1;durP2;ratioP2;P2;SDS_P1;SDS_P2;PMS_P1;PMS_P2;Temp;Humidity;BMP_temperature;BMP_pressure;BME280_temperature;BME280_humidity;BME280_pressure;Samples;Min_cycle;Max_cycle;Signal;HPM_P1;HPM_P2
2021/06/14 00:01:37;;;;;;;8.30;3.60;;;14.80;74.30;;;;;;3561649;40;20516;-69
2021/06/14 00:04:04;;;;;;;6.95;3.58;;;14.90;74.60;;;;;;3560493;40;20148;-68
2021/06/14 00:06:31;;;;;;;6.97;3.53;;;14.90;74.70;;;;;;3560551;40;20130;-69
2021/06/14 00:08:56;;;;;;;5.03;3.35;;;14.90;74.70;;;;;;3552537;40;20049;-68
2021/06/14 00:11:22;;;;;;;6.90;3.33;;;14.90;74.50;;;;;;3560271;40;20678;-68
2021/06/14 00:13:48;;;;;;;7.50;3.65;;;14.90;74.40;;;;;;3571665;40;20028;-68
2021/06/14 00:16:13;;;;;;;8.88;3.92;;;14.90;74.50;;;;;;3557190;40;20620;-68
2021/06/14 00:18:39;;;;;;;6.38;3.20;;;14.90;74.40;;;;;;3551581;40;20025;-68
2021/06/14 00:21:11;;;;;;;8.88;4.00;;;14.90;74.40;;;;;;3552092;40;20126;-68
2021/06/14 00:23:37;;;;;;;6.47;3.65;;;14.90;74.40;;;;;;3560694;40;20037;-69
2021/06/14 00:26:10;;;;;;;6.97;3.30;;;15.00;74.40;;;;;;3561026;40;20025;-68
2021/06/14 00:28:40;;;;;;;7.28;3.45;;;14.90;74.50;;;;;;3569860;40;20041;-68
2021/06/14 00:31:08;;;;;;;7.68;3.70;;;14.90;74.10;;;;;;3555013;40;20037;-68
2021/06/14 00:33:34;;;;;;;7.60;3.05;;;14.80;74.10;;;;;;3556827;40;20036;-68
2021/06/14 00:36:02;;;;;;;6.35;3.55;;;14.80;74.30;;;;;;3560366;40;20056;-68
2021/06/14 00:38:28;;;;;;;8.80;3.75;;;14.70;74.90;;;;;;3569453;40;20096;-68
2021/06/14 00:40:54;;;;;;;5.03;3.22;;;14.60;74.60;;;;;;3552157;40;20045;-68
2021/06/14 00:43:19;;;;;;;6.72;3.33;;;14.60;74.10;;;;;;3559780;40;20043;-68
2021/06/14 00:45:49;;;;;;;8.63;3.90;;;14.60;74.30;;;;;;3552107;40;20065;-68
2021/06/14 00:48:15;;;;;;;8.30;3.75;;;14.60;74.40;;;;;;3557219;40;20041;-68
2021/06/14 00:50:51;;;;;;;7.00;3.38;;;14.50;74.80;;;;;;3553322;40;20029;-69
2021/06/14 00:53:21;;;;;;;7.30;3.38;;;14.50;75.80;;;;;;3558761;40;20025;-69
2021/06/14 00:55:47;;;;;;;8.73;3.55;;;14.50;76.70;;;;;;3555990;40;20356;-68
2021/06/14 00:58:14;;;;;;;9.45;3.72;;;14.40;77.40;;;;;;3560582;40;20457;-69
2021/06/14 01:00:40;;;;;;;4.95;3.15;;;14.40;77.10;;;;;;3556778;40;20039;-68
2021/06/14 01:03:07;;;;;;;7.07;3.45;;;14.40;77.30;;;;;;3552440;40;20036;-68
2021/06/14 01:05:39;;;;;;;5.15;3.10;;;14.40;77.40;;;;;;3559593;40;20059;-68
2021/06/14 01:08:12;;;;;;;7.95;3.42;;;14.30;77.90;;;;;;3552162;40;20061;-68
2021/06/14 01:10:39;;;;;;;5.13;3.35;;;14.30;78.00;;;;;;3560202;40;20048;-68
2021/06/14 01:13:33;;;;;;;8.48;3.65;;;14.30;77.90;;;;;;3549887;40;20057;-68
2021/06/14 01:16:30;;;;;;;8.00;3.80;;;14.30;77.60;;;;;;3558568;40;20384;-69
2021/06/14 01:19:27;;;;;;;8.15;4.07;;;14.30;76.70;;;;;;3559598;40;20053;-68
2021/06/14 01:22:36;;;;;;;8.07;3.75;;;14.20;76.00;;;;;;3560290;40;20040;-69
2021/06/14 01:25:25;;;;;;;6.68;3.30;;;14.10;76.20;;;;;;3558673;40;20046;-68
2021/06/14 01:27:56;;;;;;;5.90;3.67;;;14.00;76.80;;;;;;3558990;40;20049;-68
2021/06/14 01:30:30;;;;;;;8.07;3.70;;;13.90;77.40;;;;;;3559809;40;20325;-68
2021/06/14 01:32:57;;;;;;;9.90;4.13;;;13.90;78.80;;;;;;3558818;40;20044;-69
2021/06/14 01:35:41;;;;;;;10.82;4.60;;;13.90;79.80;;;;;;3560933;40;20049;-68
2021/06/14 01:38:09;;;;;;;6.88;3.63;;;13.80;79.80;;;;;;3550730;40;20045;-68
2021/06/14 01:40:39;;;;;;;6.10;3.50;;;13.90;78.40;;;;;;3556388;40;20044;-68
2021/06/14 01:43:09;;;;;;;5.90;4.05;;;13.90;78.70;;;;;;3561024;40;20052;-68
2021/06/14 01:45:44;;;;;;;6.78;3.75;;;13.90;78.90;;;;;;3560732;40;20542;-68
2021/06/14 01:48:12;;;;;;;9.55;4.28;;;13.90;79.20;;;;;;3552242;40;20160;-68
2021/06/14 01:50:41;;;;;;;7.32;3.72;;;13.80;79.50;;;;;;3559657;40;20033;-68
2021/06/14 01:53:08;;;;;;;7.68;3.38;;;13.80;79.40;;;;;;3552265;40;20037;-68
2021/06/14 01:55:36;;;;;;;5.53;3.67;;;13.80;78.50;;;;;;3559621;40;20048;-69
2021/06/14 01:58:06;;;;;;;7.43;3.63;;;13.80;78.30;;;;;;3559627;40;20056;-69
2021/06/14 02:00:44;;;;;;;6.10;3.83;;;13.70;77.20;;;;;;3559703;40;20134;-60
2021/06/14 02:03:31;;;;;;;8.73;3.70;;;13.70;76.60;;;;;;3560500;40;20099;-60
2021/06/14 02:06:05;;;;;;;7.78;3.58;;;13.60;77.20;;;;;;3554538;40;20454;-60
2021/06/14 02:08:32;;;;;;;9.75;3.95;;;13.50;77.60;;;;;;3552585;40;20074;-60
2021/06/14 02:10:58;;;;;;;7.22;3.65;;;13.40;79.00;;;;;;3559040;40;20356;-60
2021/06/14 02:13:26;;;;;;;6.57;3.53;;;13.30;77.80;;;;;;3556518;40;20091;-60
2021/06/14 02:15:53;;;;;;;8.90;4.00;;;13.30;77.80;;;;;;3558405;40;20033;-61
2021/06/14 02:18:24;;;;;;;7.85;3.55;;;13.30;78.10;;;;;;3558946;40;20048;-60
2021/06/14 02:20:52;;;;;;;8.13;3.67;;;13.30;78.20;;;;;;3562419;40;20051;-60
2021/06/14 02:23:21;;;;;;;7.78;3.92;;;13.30;78.60;;;;;;3551146;40;20040;-60
2021/06/14 02:25:46;;;;;;;10.77;3.83;;;13.20;79.50;;;;;;3558478;40;20032;-60
2021/06/14 02:28:13;;;;;;;9.90;4.50;;;13.20;80.40;;;;;;3557265;40;20120;-61
2021/06/14 02:30:38;;;;;;;9.68;4.07;;;13.20;80.90;;;;;;3559554;40;20087;-60
2021/06/14 02:33:06;;;;;;;9.10;3.72;;;13.20;81.00;;;;;;3559508;40;20064;-60
2021/06/14 02:35:32;;;;;;;8.70;4.20;;;13.20;81.10;;;;;;3559367;40;20025;-60
2021/06/14 02:38:03;;;;;;;10.43;4.32;;;13.20;81.70;;;;;;3560088;40;20760;-60
2021/06/14 02:40:31;;;;;;;7.30;3.58;;;13.10;82.20;;;;;;3558834;40;20048;-60
2021/06/14 02:43:08;;;;;;;8.60;4.00;;;13.20;82.20;;;;;;3559756;40;20037;-60
2021/06/14 02:45:39;;;;;;;;;;;13.10;82.40;;;;;;3560240;40;20040;-60
2021/06/14 02:48:13;;;;;;;6.15;3.35;;;13.10;82.70;;;;;;3560221;40;20483;-60
2021/06/14 02:50:41;;;;;;;10.05;3.97;;;13.10;82.20;;;;;;3553013;40;20048;-60
2021/06/14 02:53:13;;;;;;;7.38;4.30;;;13.10;82.20;;;;;;3552917;40;20521;-60
2021/06/14 02:56:18;;;;;;;9.57;4.35;;;13.10;83.00;;;;;;3561615;40;20107;-61
2021/06/14 02:58:46;;;;;;;6.68;3.97;;;13.10;83.50;;;;;;3521823;40;20112;-60
2021/06/14 03:01:14;;;;;;;9.07;4.25;;;13.20;84.00;;;;;;3522421;40;20386;-68
2021/06/14 03:03:42;;;;;;;5.47;3.45;;;13.20;84.00;;;;;;3539683;40;20158;-68
2021/06/14 03:06:15;;;;;;;5.47;3.40;;;13.20;81.30;;;;;;3558265;40;20065;-68
2021/06/14 03:08:43;;;;;;;6.38;3.70;;;13.20;79.70;;;;;;3552911;40;20138;-68
2021/06/14 03:11:10;;;;;;;8.18;3.70;;;13.30;79.20;;;;;;3550673;40;20050;-68
2021/06/14 03:13:43;;;;;;;6.35;3.95;;;13.30;79.60;;;;;;3560828;40;20069;-68
2021/06/14 03:16:12;;;;;;;7.95;4.32;;;13.30;80.30;;;;;;3557625;40;20126;-68
2021/06/14 03:18:38;;;;;;;6.20;3.72;;;13.30;82.20;;;;;;3569299;40;20045;-68
2021/06/14 03:21:05;;;;;;;7.38;4.40;;;13.40;83.40;;;;;;3561469;40;20037;-68
2021/06/14 03:23:31;;;;;;;6.32;4.38;;;13.50;83.80;;;;;;3560289;40;20048;-68
2021/06/14 03:25:56;;;;;;;6.82;4.20;;;13.50;83.90;;;;;;3553099;40;20041;-68
2021/06/14 03:28:23;;;;;;;10.52;4.30;;;13.50;83.80;;;;;;3561470;40;20272;-68
2021/06/14 03:30:50;;;;;;;7.85;3.97;;;13.50;82.00;;;;;;3552601;40;20138;-61
2021/06/14 03:33:17;;;;;;;8.77;4.00;;;13.60;80.90;;;;;;3561544;40;20029;-60
2021/06/14 03:35:44;;;;;;;6.57;3.60;;;13.50;78.80;;;;;;3561422;40;20036;-61
2021/06/14 03:38:10;;;;;;;7.18;3.13;;;13.50;77.40;;;;;;3558587;40;20407;-60
2021/06/14 03:40:36;;;;;;;7.95;3.55;;;13.50;75.90;;;;;;3571058;40;20026;-60
2021/06/14 03:43:04;;;;;;;8.18;3.53;;;13.40;75.40;;;;;;3560300;40;20750;-60
2021/06/14 03:45:30;;;;;;;5.90;3.70;;;13.40;75.40;;;;;;3560491;40;20523;-60
2021/06/14 03:47:56;;;;;;;5.38;3.35;;;13.40;75.90;;;;;;3560652;40;20048;-60
2021/06/14 03:50:22;;;;;;;6.00;3.13;;;13.40;76.60;;;;;;3560279;40;20444;-68
2021/06/14 03:52:48;;;;;;;5.07;3.25;;;13.40;77.60;;;;;;3569919;40;20033;-68
2021/06/14 03:55:14;;;;;;;9.90;3.78;;;13.30;78.60;;;;;;3552376;40;20400;-68
2021/06/14 03:57:41;;;;;;;5.75;3.25;;;13.30;79.30;;;;;;3564636;40;20347;-68
2021/06/14 04:00:10;;;;;;;5.70;3.97;;;13.30;80.10;;;;;;3560249;40;20029;-70
2021/06/14 04:02:39;;;;;;;6.05;3.80;;;13.30;80.90;;;;;;3560577;40;20092;-69
2021/06/14 04:05:08;;;;;;;8.68;4.53;;;13.40;81.50;;;;;;3571154;40;20414;-70
2021/06/14 04:07:52;;;;;;;10.95;4.75;;;13.40;82.00;;;;;;3562627;40;20144;-69
2021/06/14 04:10:17;;;;;;;10.27;4.80;;;13.50;82.80;;;;;;3559676;40;20045;-68
2021/06/14 04:12:43;;;;;;;13.63;5.25;;;13.50;83.40;;;;;;3561182;40;20048;-67
2021/06/14 04:15:09;;;;;;;8.02;4.60;;;13.60;83.80;;;;;;3564148;40;20065;-68
2021/06/14 04:17:35;;;;;;;8.93;4.50;;;13.60;83.90;;;;;;3560539;40;20061;-67
2021/06/14 04:20:00;;;;;;;7.50;4.78;;;13.70;83.80;;;;;;3553983;40;20317;-68
2021/06/14 04:22:26;;;;;;;9.35;4.78;;;13.70;83.70;;;;;;3559893;40;20504;-67
2021/06/14 04:24:52;;;;;;;10.43;5.00;;;13.80;83.50;;;;;;3561526;40;20037;-67
2021/06/14 04:27:17;;;;;;;10.00;5.32;;;13.80;83.50;;;;;;3559420;40;20641;-67
2021/06/14 04:29:43;;;;;;;12.73;5.40;;;13.90;83.40;;;;;;3561815;40;20035;-67
2021/06/14 04:32:10;;;;;;;10.82;5.53;;;13.90;83.10;;;;;;3555652;40;20500;-67
2021/06/14 04:34:35;;;;;;;13.52;5.50;;;14.00;83.00;;;;;;3569034;40;20153;-67
2021/06/14 04:37:01;;;;;;;9.43;5.55;;;14.00;83.00;;;;;;3560189;40;20060;-67
2021/06/14 04:39:27;;;;;;;10.75;5.50;;;14.00;83.00;;;;;;3561561;40;20026;-65
2021/06/14 04:41:53;;;;;;;11.40;6.20;;;14.10;83.00;;;;;;3560670;40;20029;-61
2021/06/14 04:44:18;;;;;;;9.27;5.35;;;14.10;82.90;;;;;;3569381;40;20021;-68
2021/06/14 04:46:44;;;;;;;9.05;5.45;;;14.20;82.70;;;;;;3553561;40;20025;-68
2021/06/14 04:49:10;;;;;;;7.65;5.18;;;14.20;82.50;;;;;;3569746;40;20058;-69
2021/06/14 04:51:36;;;;;;;9.27;5.70;;;14.30;82.50;;;;;;3571156;40;20033;-61
2021/06/14 04:54:01;;;;;;;9.20;5.15;;;14.30;82.30;;;;;;3552948;40;20126;-61
2021/06/14 04:56:27;;;;;;;11.23;5.65;;;14.40;82.10;;;;;;3570542;40;20037;-63
2021/06/14 04:58:53;;;;;;;8.52;4.55;;;14.50;82.00;;;;;;3561719;40;20037;-62
2021/06/14 05:01:18;;;;;;;14.57;5.30;;;14.60;82.10;;;;;;3561111;40;20896;-62
2021/06/14 05:03:45;;;;;;;9.70;4.97;;;14.70;82.10;;;;;;3561731;40;20041;-62
2021/06/14 05:06:11;;;;;;;7.43;4.35;;;14.90;81.10;;;;;;3559942;40;20766;-61
2021/06/14 05:08:37;;;;;;;8.43;4.38;;;15.10;79.80;;;;;;3561262;40;20921;-62
2021/06/14 05:11:02;;;;;;;8.30;4.60;;;15.50;78.50;;;;;;3561642;40;20048;-62
2021/06/14 05:13:29;;;;;;;9.18;4.25;;;15.80;77.20;;;;;;3568826;40;20053;-62
2021/06/14 05:15:54;;;;;;;8.50;4.30;;;16.20;75.60;;;;;;3569140;40;20032;-62
2021/06/14 05:18:20;;;;;;;8.93;4.30;;;16.40;75.00;;;;;;3561055;40;20047;-61
2021/06/14 05:20:46;;;;;;;5.47;3.90;;;16.60;73.90;;;;;;3569245;40;20040;-62
2021/06/14 05:23:11;;;;;;;7.72;4.30;;;16.80;73.90;;;;;;3561456;40;20035;-62
2021/06/14 05:25:37;;;;;;;9.13;3.97;;;17.20;72.30;;;;;;3561077;40;20066;-62
2021/06/14 05:28:05;;;;;;;8.48;4.20;;;17.30;71.10;;;;;;3561544;40;20852;-61
2021/06/14 05:30:31;;;;;;;10.50;4.47;;;17.50;70.80;;;;;;3560845;40;20041;-62
2021/06/14 05:32:58;;;;;;;7.38;4.10;;;17.50;71.10;;;;;;3557717;40;20033;-62
2021/06/14 05:35:24;;;;;;;6.80;3.47;;;17.60;70.40;;;;;;3561840;40;20771;-61
2021/06/14 05:37:50;;;;;;;7.78;3.90;;;17.70;69.20;;;;;;3556654;40;20033;-61
2021/06/14 05:40:17;;;;;;;6.38;3.80;;;17.80;68.00;;;;;;3569729;40;20425;-61
2021/06/14 05:42:46;;;;;;;6.95;4.70;;;17.90;68.10;;;;;;3561082;40;20053;-62
2021/06/14 05:45:14;;;;;;;4.88;3.45;;;18.00;67.10;;;;;;3556761;40;20069;-61
2021/06/14 05:47:39;;;;;;;7.65;4.18;;;18.10;67.50;;;;;;3561104;40;20021;-61
2021/06/14 05:50:06;;;;;;;8.55;3.88;;;18.30;68.20;;;;;;3560685;40;20036;-63
2021/06/14 05:52:32;;;;;;;9.75;3.55;;;18.40;65.50;;;;;;3561567;40;20053;-62
2021/06/14 05:54:58;;;;;;;5.78;3.50;;;18.50;65.30;;;;;;3570688;40;20378;-62
2021/06/14 05:57:23;;;;;;;5.07;3.60;;;18.50;65.60;;;;;;3553179;40;20037;-62
2021/06/14 05:59:49;;;;;;;8.93;3.63;;;18.70;64.30;;;;;;3561141;40;20656;-62
2021/06/14 06:02:15;;;;;;;7.65;4.00;;;18.80;63.50;;;;;;3570297;40;20040;-62
2021/06/14 06:04:40;;;;;;;9.80;4.03;;;18.80;62.90;;;;;;3560450;40;20337;-62
2021/06/14 06:07:06;;;;;;;6.50;4.20;;;18.90;62.60;;;;;;3569721;40;20025;-62
2021/06/14 06:09:32;;;;;;;8.48;4.28;;;18.90;62.60;;;;;;3558778;40;20497;-62
2021/06/14 06:11:58;;;;;;;18.05;4.18;;;19.00;62.90;;;;;;3561684;40;20068;-61
2021/06/14 06:14:24;;;;;;;7.22;4.03;;;19.20;61.10;;;;;;3560358;40;20050;-61
2021/06/14 06:16:50;;;;;;;5.82;3.65;;;19.30;60.10;;;;;;3557632;40;20029;-61
2021/06/14 06:19:16;;;;;;;6.68;3.92;;;19.30;60.40;;;;;;3554208;40;20052;-62
2021/06/14 06:21:43;;;;;;;8.90;2.95;;;19.40;59.70;;;;;;3553933;40;20041;-62
2021/06/14 06:24:09;;;;;;;6.13;3.45;;;19.60;59.50;;;;;;3563427;40;20045;-62
2021/06/14 06:26:34;;;;;;;6.97;3.80;;;19.60;59.80;;;;;;3570677;40;20399;-61
2021/06/14 06:29:01;;;;;;;6.80;3.67;;;19.70;59.60;;;;;;3571213;40;20116;-61
2021/06/14 06:31:27;;;;;;;7.53;3.55;;;19.80;59.30;;;;;;3571746;40;20047;-61
2021/06/14 06:33:52;;;;;;;5.15;3.28;;;19.90;58.80;;;;;;3562325;40;20092;-61
2021/06/14 06:36:18;;;;;;;7.88;3.22;;;19.90;58.60;;;;;;3560858;40;20351;-62
2021/06/14 06:38:44;;;;;;;7.05;2.65;;;19.90;58.00;;;;;;3571608;40;20060;-61
2021/06/14 06:41:09;;;;;;;7.13;3.78;;;20.00;56.80;;;;;;3559048;40;20053;-61
2021/06/14 06:43:35;;;;;;;8.52;3.78;;;20.00;57.30;;;;;;3562441;40;20148;-61
2021/06/14 06:46:05;;;;;;;11.90;5.43;;;20.10;57.80;;;;;;3563003;40;20056;-61
2021/06/14 06:48:32;;;;;;;11.77;5.15;;;20.20;57.40;;;;;;3573045;40;20032;-62
2021/06/14 06:50:59;;;;;;;10.32;5.13;;;20.20;57.10;;;;;;3561412;40;20065;-61
2021/06/14 06:53:28;;;;;;;9.88;4.03;;;20.30;57.20;;;;;;3564035;40;20025;-62
2021/06/14 06:55:54;;;;;;;8.75;3.63;;;20.30;56.80;;;;;;3562070;40;20029;-61
2021/06/14 06:58:20;;;;;;;8.27;3.58;;;20.30;56.50;;;;;;3563425;40;20078;-61
2021/06/14 07:00:48;;;;;;;7.93;3.72;;;20.30;57.30;;;;;;3563240;40;20752;-61
2021/06/14 07:03:16;;;;;;;7.82;3.92;;;20.30;57.40;;;;;;3554203;40;20034;-62
2021/06/14 07:05:43;;;;;;;6.90;3.40;;;20.30;57.30;;;;;;3559492;40;20032;-62
2021/06/14 07:08:09;;;;;;;8.73;4.63;;;20.40;57.30;;;;;;3563035;40;20040;-62
2021/06/14 07:10:38;;;;;;;8.18;3.88;;;20.40;57.10;;;;;;3563299;40;20131;-62
2021/06/14 07:13:04;;;;;;;7.97;3.55;;;20.50;56.30;;;;;;3563026;40;20081;-62
2021/06/14 07:15:30;;;;;;;7.55;3.20;;;20.50;55.70;;;;;;3572731;40;20057;-64
2021/06/14 07:17:56;;;;;;;9.40;3.88;;;20.50;55.20;;;;;;3572613;40;20045;-62
2021/06/14 07:20:22;;;;;;;7.75;3.20;;;20.50;55.30;;;;;;3562909;40;20337;-62
2021/06/14 07:22:48;;;;;;;7.13;2.97;;;20.60;54.90;;;;;;3573120;40;20029;-62
2021/06/14 07:25:14;;;;;;;9.38;3.05;;;20.60;55.30;;;;;;3562977;40;20511;-62
2021/06/14 07:27:41;;;;;;;9.70;3.40;;;20.70;54.80;;;;;;3572236;40;20161;-62
2021/06/14 07:30:08;;;;;;;9.63;4.10;;;20.70;55.00;;;;;;3562698;40;20091;-61
2021/06/14 07:32:34;;;;;;;8.98;3.60;;;20.80;54.70;;;;;;3572643;40;20037;-61
2021/06/14 07:35:00;;;;;;;10.88;4.43;;;20.80;54.00;;;;;;3572300;40;20040;-61
2021/06/14 07:37:26;;;;;;;10.57;4.07;;;20.80;54.30;;;;;;3572461;40;20036;-61
2021/06/14 07:39:52;;;;;;;8.40;4.05;;;20.90;54.30;;;;;;3572919;40;20044;-61
2021/06/14 07:42:19;;;;;;;6.00;3.75;;;21.00;54.30;;;;;;3562746;40;20333;-61
2021/06/14 07:44:45;;;;;;;7.18;3.70;;;21.00;54.00;;;;;;3572688;40;20759;-61
2021/06/14 07:47:11;;;;;;;6.63;3.97;;;21.10;53.20;;;;;;3558447;40;20092;-67
2021/06/14 07:49:39;;;;;;;7.40;3.95;;;21.10;53.20;;;;;;3562449;40;20025;-67
2021/06/14 07:52:07;;;;;;;8.23;4.40;;;21.20;53.00;;;;;;3572554;40;20029;-66
2021/06/14 07:54:32;;;;;;;10.40;2.83;;;21.20;53.40;;;;;;3562496;40;20037;-68
2021/06/14 07:56:59;;;;;;;6.18;3.25;;;21.20;51.50;;;;;;3562152;40;20165;-66
2021/06/14 07:59:25;;;;;;;6.35;3.10;;;21.20;52.30;;;;;;3557052;40;20044;-67
2021/06/14 08:01:51;;;;;;;6.93;3.10;;;21.20;52.00;;;;;;3571603;40;20021;-66
2021/06/14 08:04:17;;;;;;;4.47;2.58;;;21.20;52.40;;;;;;3572056;40;20033;-68
2021/06/14 08:06:43;;;;;;;5.13;2.35;;;21.20;52.40;;;;;;3562623;40;20029;-68
2021/06/14 08:09:12;;;;;;;5.55;2.58;;;21.30;52.20;;;;;;3571950;40;20413;-67
2021/06/14 08:11:38;;;;;;;5.93;2.70;;;21.40;51.90;;;;;;3561803;40;20033;-68
2021/06/14 08:14:05;;;;;;;10.88;3.10;;;21.40;51.80;;;;;;3571728;40;20498;-67
2021/06/14 08:16:32;;;;;;;5.75;2.38;;;21.50;51.90;;;;;;3562071;40;20033;-67
2021/06/14 08:26:48;;;;;;;6.82;2.85;;;21.80;49.70;;;;;;3567835;40;20611;-68
2021/06/14 08:29:15;;;;;;;8.27;2.55;;;21.90;49.20;;;;;;3571647;40;20115;-67
2021/06/14 08:31:41;;;;;;;7.05;3.28;;;21.90;49.20;;;;;;3572298;40;20041;-67
2021/06/14 08:34:10;;;;;;;5.25;2.60;;;21.90;49.20;;;;;;3572634;40;20076;-68
2021/06/14 08:36:37;;;;;;;7.03;4.47;;;22.00;48.90;;;;;;3562558;40;20080;-67
2021/06/14 08:39:04;;;;;;;8.10;3.35;;;21.90;48.10;;;;;;3572467;40;20073;-68
2021/06/14 08:41:30;;;;;;;4.50;2.75;;;22.00;48.00;;;;;;3572049;40;20033;-68
2021/06/14 08:43:58;;;;;;;6.63;2.78;;;22.10;46.90;;;;;;3572116;40;20085;-68
2021/06/14 08:46:25;;;;;;;4.68;2.63;;;22.10;47.30;;;;;;3569945;40;20024;-68
2021/06/14 08:48:52;;;;;;;4.85;2.08;;;22.10;47.10;;;;;;3571687;40;20306;-69
2021/06/14 08:51:19;;;;;;;4.32;2.30;;;22.10;46.10;;;;;;3570920;40;20534;-69
2021/06/14 08:53:44;;;;;;;7.38;2.95;;;22.20;46.00;;;;;;3570933;40;20394;-68
2021/06/14 08:56:10;;;;;;;5.40;2.30;;;22.20;46.40;;;;;;3568799;40;20043;-69
2021/06/14 08:58:36;;;;;;;6.60;2.55;;;22.30;46.00;;;;;;3552876;40;20017;-68
2021/06/14 09:01:04;;;;;;;5.80;2.67;;;22.40;46.40;;;;;;3571050;40;20044;-69
2021/06/14 09:03:30;;;;;;;3.78;2.03;;;22.50;45.80;;;;;;3571547;40;20371;-68
2021/06/14 09:05:56;;;;;;;4.20;2.13;;;22.60;44.90;;;;;;3561666;40;20052;-68
2021/06/14 09:08:24;;;;;;;4.07;1.92;;;22.60;44.30;;;;;;3570770;40;20380;-69
2021/06/14 09:10:51;;;;;;;6.18;2.13;;;22.60;44.30;;;;;;3553703;40;20040;-68
2021/06/14 09:13:26;;;;;;;7.03;2.90;;;22.70;44.80;;;;;;3571586;40;20036;-68
2021/06/14 09:16:08;;;;;;;4.40;2.15;;;22.80;44.50;;;;;;3562379;40;20052;-68
2021/06/14 09:18:34;;;;;;;6.38;2.40;;;22.70;43.90;;;;;;3570702;40;20040;-68
2021/06/14 09:21:04;;;;;;;5.40;2.17;;;22.70;43.70;;;;;;3571866;40;20033;-69
2021/06/14 09:23:48;;;;;;;4.90;1.70;;;22.70;43.20;;;;;;3562344;40;20109;-69
2021/06/14 09:26:22;;;;;;;4.25;2.00;;;22.80;43.70;;;;;;3561652;40;20029;-68
2021/06/14 09:28:52;;;;;;;5.80;2.20;;;22.70;44.50;;;;;;3569860;40;20473;-68
2021/06/14 09:31:18;;;;;;;4.88;2.20;;;22.90;44.80;;;;;;3570932;40;20029;-62
2021/06/14 09:33:47;;;;;;;3.42;2.08;;;23.00;44.90;;;;;;3561911;40;20025;-62
2021/06/14 09:36:15;;;;;;;5.13;2.00;;;23.10;44.20;;;;;;3571680;40;20036;-62
2021/06/14 09:38:41;;;;;;;6.05;2.20;;;23.10;43.90;;;;;;3571667;40;20029;-62
2021/06/14 09:41:13;;;;;;;3.67;1.70;;;23.10;43.80;;;;;;3561178;40;20037;-68
2021/06/14 09:43:41;;;;;;;5.30;2.00;;;23.10;43.20;;;;;;3571614;40;20021;-69
2021/06/14 09:46:21;;;;;;;4.05;2.00;;;23.20;42.60;;;;;;3561510;40;20763;-68
2021/06/14 09:48:48;;;;;;;4.85;1.90;;;23.30;43.40;;;;;;3569505;40;20041;-69
2021/06/14 09:51:14;;;;;;;3.55;1.58;;;23.30;41.80;;;;;;3558025;40;20118;-68
2021/06/14 09:53:45;;;;;;;3.53;1.80;;;23.30;41.80;;;;;;3570856;40;20056;-68
2021/06/14 09:56:20;;;;;;;10.23;2.30;;;23.30;41.80;;;;;;3570937;40;20666;-68
2021/06/14 09:58:48;;;;;;;6.50;2.20;;;23.50;42.30;;;;;;3560665;40;20032;-68
2021/06/14 10:01:22;;;;;;;4.57;2.08;;;23.60;41.70;;;;;;3561841;40;20049;-68
2021/06/14 10:03:48;;;;;;;3.47;1.45;;;23.50;41.70;;;;;;3560962;40;20052;-69
2021/06/14 10:06:25;;;;;;;3.50;1.70;;;23.50;42.10;;;;;;3570691;40;20673;-68
2021/06/14 10:08:51;;;;;;;2.70;1.67;;;23.60;42.20;;;;;;3560235;40;20115;-69
2021/06/14 10:11:17;;;;;;;5.68;2.13;;;23.70;42.50;;;;;;3569969;40;20073;-69
2021/06/14 10:13:49;;;;;;;5.55;1.70;;;23.70;40.70;;;;;;3570875;40;20017;-68
2021/06/14 10:16:25;;;;;;;7.03;1.83;;;23.70;41.40;;;;;;3560792;40;20041;-68
2021/06/14 10:18:57;;;;;;;3.40;1.33;;;23.70;41.60;;;;;;3559964;40;20037;-69
2021/06/14 10:21:32;;;;;;;4.43;1.60;;;23.80;41.80;;;;;;3561793;40;20298;-69
2021/06/14 10:24:01;;;;;;;5.18;1.38;;;23.80;42.00;;;;;;3570826;40;20041;-69
2021/06/14 10:26:28;;;;;;;3.53;1.70;;;23.90;42.00;;;;;;3571195;40;20033;-69
2021/06/14 10:28:55;;;;;;;6.85;1.75;;;24.00;41.60;;;;;;3570508;40;20037;-68
2021/06/14 10:31:22;;;;;;;3.22;1.52;;;24.10;41.10;;;;;;3553569;40;20041;-69
2021/06/14 10:38:57;;;;;;;4.65;1.95;;;24.20;40.80;;;;;;3582448;40;20107;-63
2021/06/14 10:41:24;;;;;;;2.13;1.40;;;24.40;40.90;;;;;;3583246;40;20270;-62
2021/06/14 10:43:51;;;;;;;5.40;1.80;;;24.50;41.50;;;;;;3584141;40;20643;-63
2021/06/14 10:46:22;;;;;;;4.20;2.00;;;24.50;40.60;;;;;;3570351;40;20044;-63
2021/06/14 10:48:55;;;;;;;3.53;1.63;;;24.60;40.80;;;;;;3577096;40;20025;-63
2021/06/14 10:51:21;;;;;;;2.85;1.95;;;24.80;40.30;;;;;;3579598;40;20032;-63
2021/06/14 10:53:51;;;;;;;5.57;1.88;;;25.20;40.30;;;;;;3579662;40;20032;-63
2021/06/14 10:56:23;;;;;;;4.30;1.83;;;25.80;39.20;;;;;;3579982;40;20025;-63
2021/06/14 10:58:56;;;;;;;4.22;1.50;;;25.90;39.00;;;;;;3578495;40;20032;-64
2021/06/14 11:01:32;;;;;;;4.47;1.80;;;25.80;39.60;;;;;;3576727;40;20029;-63
2021/06/14 11:03:59;;;;;;;3.28;1.63;;;25.60;39.20;;;;;;3569767;40;20025;-63
2021/06/14 11:06:27;;;;;;;5.93;1.65;;;25.40;39.10;;;;;;3578400;40;20071;-63
2021/06/14 11:09:06;;;;;;;4.45;1.70;;;25.30;39.30;;;;;;3580386;40;20040;-68
2021/06/14 11:11:59;;;;;;;3.03;1.52;;;25.10;39.60;;;;;;3580357;40;20029;-67
2021/06/14 11:14:42;;;;;;;4.68;2.10;;;24.90;40.50;;;;;;3578531;40;20041;-66
2021/06/14 11:17:21;;;;;;;4.00;1.70;;;24.90;40.80;;;;;;3574848;40;20670;-66
2021/06/14 11:20:09;;;;;;;4.13;1.80;;;24.90;41.30;;;;;;3578018;40;20612;-67
2021/06/14 11:22:41;;;;;;;4.07;1.38;;;25.00;40.20;;;;;;3578476;40;20122;-66
2021/06/14 11:25:28;;;;;;;5.72;1.60;;;25.00;40.90;;;;;;3580705;40;20033;-67
2021/06/14 11:27:55;;;;;;;4.75;2.08;;;25.00;41.30;;;;;;3581330;40;20036;-67
2021/06/14 11:30:47;;;;;;;5.35;1.80;;;25.10;40.90;;;;;;3581518;40;20044;-67
2021/06/14 11:33:27;;;;;;;4.30;2.00;;;25.20;40.10;;;;;;3581416;40;20044;-67
2021/06/14 11:35:57;;;;;;;4.75;2.03;;;25.10;40.70;;;;;;3580244;40;20025;-67
2021/06/14 11:38:24;;;;;;;5.65;1.65;;;25.20;40.20;;;;;;3581786;40;20076;-67
2021/06/14 11:40:53;;;;;;;3.63;1.58;;;25.20;40.70;;;;;;3580455;40;20424;-67
2021/06/14 11:43:20;;;;;;;3.45;1.77;;;25.30;40.60;;;;;;3581778;40;20053;-62
2021/06/14 11:45:49;;;;;;;2.08;1.42;;;25.40;40.70;;;;;;3582261;40;20767;-62
2021/06/14 11:48:25;;;;;;;2.45;1.50;;;25.40;39.80;;;;;;3577563;40;20326;-61
2021/06/14 11:51:09;;;;;;;4.68;1.80;;;25.40;40.00;;;;;;3578198;40;20539;-62
2021/06/14 11:53:54;;;;;;;5.65;1.70;;;25.50;39.80;;;;;;3580642;40;20021;-63
2021/06/14 11:56:21;;;;;;;4.70;1.70;;;25.40;40.20;;;;;;3579208;40;20117;-63
2021/06/14 11:58:50;;;;;;;3.45;1.80;;;25.50;40.70;;;;;;3579956;40;20745;-62
2021/06/14 12:01:16;;;;;;;3.55;1.70;;;25.60;39.60;;;;;;3571389;40;20048;-62
2021/06/14 12:03:41;;;;;;;2.92;1.67;;;25.70;39.10;;;;;;3571332;40;20285;-62
2021/06/14 12:06:07;;;;;;;2.15;1.30;;;25.60;39.50;;;;;;3581069;40;20024;-62
2021/06/14 12:08:33;;;;;;;4.65;1.65;;;25.60;39.50;;;;;;3581131;40;20028;-62
2021/06/14 12:10:59;;;;;;;3.13;1.75;;;25.60;40.60;;;;;;3580031;40;20028;-62
2021/06/14 12:13:26;;;;;;;2.38;1.63;;;25.60;40.60;;;;;;3581315;40;20100;-62
2021/06/14 12:15:54;;;;;;;3.28;1.65;;;25.80;40.60;;;;;;3581710;40;20289;-62
2021/06/14 12:18:20;;;;;;;2.65;1.80;;;25.90;39.50;;;;;;3582012;40;20033;-62
2021/06/14 12:21:05;;;;;;;2.97;1.42;;;26.00;39.70;;;;;;3572367;40;20105;-61
2021/06/14 12:23:37;;;;;;;4.05;1.70;;;26.00;39.80;;;;;;3580896;40;20064;-61
2021/06/14 12:26:13;;;;;;;3.20;1.45;;;26.10;38.80;;;;;;3579945;40;20036;-62
2021/06/14 12:28:40;;;;;;;2.13;1.42;;;26.00;39.30;;;;;;3581978;40;20044;-62
2021/06/14 12:31:11;;;;;;;2.35;1.50;;;26.10;40.80;;;;;;3582075;40;20037;-61
2021/06/14 12:33:38;;;;;;;3.03;1.50;;;26.20;38.80;;;;;;3570037;40;20021;-61
2021/06/14 12:36:06;;;;;;;4.40;1.88;;;26.10;38.60;;;;;;3560582;40;20044;-61
2021/06/14 12:38:32;;;;;;;5.18;2.03;;;26.20;39.90;;;;;;3580620;40;20666;-65
2021/06/14 12:41:00;;;;;;;4.30;1.67;;;26.20;39.50;;;;;;3580422;40;20036;-62
2021/06/14 12:43:34;;;;;;;4.03;1.60;;;26.30;38.90;;;;;;3579434;40;20041;-62
2021/06/14 12:46:00;;;;;;;3.00;1.52;;;26.30;38.50;;;;;;3581358;40;20047;-63
2021/06/14 12:48:27;;;;;;;2.50;1.80;;;26.30;38.60;;;;;;3582215;40;20398;-63
2021/06/14 12:50:55;;;;;;;3.33;1.60;;;26.40;39.30;;;;;;3581041;40;20121;-63
2021/06/14 12:53:23;;;;;;;3.22;1.83;;;26.40;38.60;;;;;;3579712;40;20032;-64
2021/06/14 12:55:51;;;;;;;3.25;1.75;;;26.50;38.50;;;;;;3580375;40;20041;-63
2021/06/14 12:58:22;;;;;;;2.20;1.52;;;26.60;39.10;;;;;;3581706;40;20141;-65
2021/06/14 13:00:53;;;;;;;3.58;1.90;;;26.70;39.10;;;;;;3579150;40;20433;-62
2021/06/14 13:03:19;;;;;;;3.95;2.05;;;26.70;38.50;;;;;;3581220;40;20119;-62
2021/06/14 13:05:47;;;;;;;3.88;1.85;;;26.70;38.70;;;;;;3558038;40;20049;-62
2021/06/14 13:08:15;;;;;;;3.50;1.55;;;26.80;38.60;;;;;;3580403;40;20508;-62